Canyon Creek, Montana
Current Conditions -  °F | °C
As of 7:53 PM on Thursday 27 Nov 2014 (Local Time) from KHLN Reporting Station
Clear Clear  
Wind Chill: 43°   Ceiling: Unl
Heat Index: 48°   Visibility: 10mi
Dew Point: 34°   Wind: 10mph
Humidity: 58%   Direction: 110°ESE
Pressure: 29.79"   Gusts: NA
Location:  46.8°N, 112.26°W
Report Text: KHLN 280253Z 11009KT 10SM CLR 09/01 A2979 RMK AO2 SLP123 T00890011 58008 $
Loading
Personal Weather Stations






























Interactive Weather Map New forecast layout! Learn more

10-Day Weather Forecast

Advertisements
Track Severe Weather on mobile